Time;durP1;ratioP1;P1;durP2;ratioP2;P2;SDS_P1;SDS_P2;PMS_P1;PMS_P2;Temp;Humidity;BMP_temperature;BMP_pressure;BME280_temperature;BME280_humidity;BME280_pressure;Samples;Min_cycle;Max_cycle;Signal;HPM_P1;HPM_P2
2023/01/28 00:01:16;;;;;;;30.50;16.20;;;;;;;;;;108649;1263;60413;-49
2023/01/28 00:03:44;;;;;;;25.20;13.70;;;;;;;;;;108649;1263;57498;-51
2023/01/28 00:06:13;;;;;;;29.70;16.00;;;;;;;;;;108587;1266;60458;-48
2023/01/28 00:08:41;;;;;;;29.20;15.00;;;;;;;;;;108626;1263;57457;-49
2023/01/28 00:11:09;;;;;;;29.60;15.40;;;;;;;;;;108705;1263;57427;-48
2023/01/28 00:13:37;;;;;;;27.10;15.60;;;;;;;;;;108588;1263;60375;-48
2023/01/28 00:16:09;;;;;;;33.50;17.30;;;;;;;;;;105329;1267;59654;-48
2023/01/28 00:18:37;;;;;;;33.90;17.50;;;;;;;;;;104971;1263;59737;-47
2023/01/28 00:21:06;;;;;;;28.80;15.00;;;;;;;;;;107029;1262;59845;-47
2023/01/28 00:23:35;;;;;;;30.50;15.70;;;;;;;;;;104869;1264;59641;-48
2023/01/28 00:26:04;;;;;;;26.70;14.30;;;;;;;;;;104953;1263;61530;-47
2023/01/28 00:28:32;;;;;;;25.50;14.00;;;;;;;;;;105026;1267;59654;-45
2023/01/28 00:31:18;;;;;;;34.60;16.20;;;;;;;;;;106046;1269;60530;-46
2023/01/28 00:33:46;;;;;;;28.10;13.50;;;;;;;;;;104921;1266;59634;-47
2023/01/28 00:36:15;;;;;;;31.30;14.80;;;;;;;;;;104959;1263;59694;-47
2023/01/28 00:38:47;;;;;;;27.30;14.40;;;;;;;;;;104962;1260;61249;-48
2023/01/28 00:41:16;;;;;;;25.50;13.70;;;;;;;;;;105049;1264;59807;-47
2023/01/28 00:43:44;;;;;;;27.30;14.60;;;;;;;;;;105140;1266;60116;-45
2023/01/28 00:46:12;;;;;;;25.00;13.90;;;;;;;;;;105980;1265;59733;-48
2023/01/28 00:48:42;;;;;;;25.40;13.80;;;;;;;;;;105270;1260;59695;-49
2023/01/28 00:51:10;;;;;;;30.50;16.10;;;;;;;;;;106727;1260;61327;-48
2023/01/28 00:53:38;;;;;;;26.70;14.40;;;;;;;;;;104888;1266;59779;-48
2023/01/28 00:56:06;;;;;;;29.70;16.00;;;;;;;;;;105280;1260;60761;-48
2023/01/28 00:58:34;;;;;;;29.40;15.20;;;;;;;;;;105292;1263;58864;-47
2023/01/28 01:01:23;;;;;;;33.90;17.20;;;;;;;;;;105605;1260;59542;-48
2023/01/28 01:03:56;;;;;;;31.80;15.80;;;;;;;;;;105382;1263;61258;-48
2023/01/28 01:06:24;;;;;;;28.10;15.60;;;;;;;;;;105015;1260;59698;-48
2023/01/28 01:08:53;;;;;;;30.50;15.80;;;;;;;;;;104939;1260;60755;-49
2023/01/28 01:11:21;;;;;;;31.20;16.20;;;;;;;;;;105094;1265;60272;-47
2023/01/28 01:13:50;;;;;;;33.20;17.80;;;;;;;;;;105088;1261;59755;-47
2023/01/28 01:16:18;;;;;;;35.40;17.20;;;;;;;;;;105650;1260;61131;-46
2023/01/28 01:18:50;;;;;;;30.80;16.10;;;;;;;;;;105104;1264;60288;-48
2023/01/28 01:21:19;;;;;;;33.20;15.80;;;;;;;;;;105182;1266;60807;-47
2023/01/28 01:23:47;;;;;;;27.90;13.60;;;;;;;;;;105328;1260;59727;-47
2023/01/28 01:26:15;;;;;;;26.80;15.00;;;;;;;;;;105361;1261;60201;-48
2023/01/28 01:28:43;;;;;;;25.10;14.80;;;;;;;;;;104944;1263;61646;-48
2023/01/28 01:31:14;;;;;;;30.70;15.00;;;;;;;;;;105097;1260;59596;-47
2023/01/28 01:33:42;;;;;;;23.60;11.90;;;;;;;;;;105024;1263;60615;-48
2023/01/28 01:36:11;;;;;;;21.60;12.20;;;;;;;;;;105201;1266;59660;-46
2023/01/28 01:38:40;;;;;;;27.40;13.30;;;;;;;;;;105663;1264;59730;-47
2023/01/28 01:41:08;;;;;;;26.30;13.80;;;;;;;;;;105139;1263;61133;-47
2023/01/28 01:44:03;;;;;;;26.60;13.80;;;;;;;;;;105478;1266;59564;-47
2023/01/28 01:46:33;;;;;;;29.80;13.30;;;;;;;;;;105764;1261;60803;-48
2023/01/28 01:49:20;;;;;;;23.80;13.20;;;;;;;;;;105226;1263;59612;-46
2023/01/28 01:51:49;;;;;;;23.80;12.70;;;;;;;;;;105240;1260;59550;-48
2023/01/28 01:54:17;;;;;;;25.80;12.40;;;;;;;;;;105516;1260;61178;-48
2023/01/28 01:56:46;;;;;;;25.40;12.50;;;;;;;;;;104968;1260;59719;-48
2023/01/28 01:59:14;;;;;;;24.40;12.20;;;;;;;;;;105661;1261;60393;-46
2023/01/28 02:01:44;;;;;;;27.50;12.90;;;;;;;;;;105486;1262;59625;-48
2023/01/28 02:04:19;;;;;;;23.20;12.70;;;;;;;;;;108591;1263;57405;-48
2023/01/28 02:06:47;;;;;;;24.00;11.90;;;;;;;;;;105700;1260;60523;-46
2023/01/28 02:09:22;;;;;;;26.10;14.00;;;;;;;;;;105368;1265;59539;-48
2023/01/28 02:11:54;;;;;;;30.40;14.60;;;;;;;;;;104901;1266;60502;-48
2023/01/28 02:14:22;;;;;;;25.90;12.40;;;;;;;;;;105388;1266;60405;-47
2023/01/28 02:17:01;;;;;;;34.80;14.80;;;;;;;;;;105132;1260;60410;-47
2023/01/28 02:19:35;;;;;;;36.80;16.50;;;;;;;;;;104823;1260;62020;-46
2023/01/28 02:22:07;;;;;;;21.70;10.90;;;;;;;;;;108718;1260;58524;-47
2023/01/28 02:24:40;;;;;;;33.30;14.90;;;;;;;;;;108782;1260;59613;-47
2023/01/28 02:27:08;;;;;;;23.90;13.20;;;;;;;;;;108692;1260;58363;-47
2023/01/28 02:31:52;;;;;;;28.20;14.50;;;;;;;-3.10;100.00;101315.39;102439;1290;600882;-48
2023/01/28 02:34:47;;;;;;;30.90;14.60;;;;;;;-3.14;100.00;101276.46;107225;1265;59325;-48
2023/01/28 02:37:28;;;;;;;28.50;13.50;;;;;;;-3.19;100.00;101229.43;104579;1264;59929;-46
2023/01/28 02:39:58;;;;;;;22.70;10.60;;;;;;;-3.20;100.00;101199.04;108479;1264;71189;-46
2023/01/28 02:42:28;;;;;;;25.80;12.10;;;;;;;-3.25;100.00;101167.09;108210;1270;68915;-46
2023/01/28 02:44:56;;;;;;;23.50;12.30;;;;;;;-3.33;100.00;101145.08;108364;1263;97013;-46
2023/01/28 02:50:15;;;;;;;24.40;12.30;;;;;;;-3.42;100.00;101119.02;107952;1264;59266;-44
2023/01/28 02:55:40;;;;;;;33.00;16.10;;;;;;;-3.35;100.00;101104.84;104861;1267;68408;-46
2023/01/28 02:58:17;;;;;;;26.80;13.00;;;;;;;-3.35;100.00;101091.48;104958;1266;71958;-44
2023/01/28 03:00:55;;;;;;;28.40;13.20;;;;;;;-3.36;100.00;101086.36;104849;1267;61225;-44
2023/01/28 03:03:28;;;;;;;30.30;14.30;;;;;;;-3.36;100.00;101081.09;104593;1264;60457;-44
2023/01/28 03:06:07;;;;;;;27.90;14.00;;;;;;;-3.38;100.00;101072.61;105008;1269;71672;-45
2023/01/28 03:36:50;;;;;;;29.00;14.70;;;;;;;-3.47;100.00;101034.80;104690;1264;67468;-46
2023/01/28 03:39:36;;;;;;;26.60;13.90;;;;;;;-3.48;100.00;101032.14;105277;1264;71207;-44
2023/01/28 03:42:09;;;;;;;29.40;14.50;;;;;;;-3.50;100.00;101019.29;105581;1269;62387;-47
2023/01/28 03:44:52;;;;;;;23.50;12.00;;;;;;;-3.51;100.00;101021.00;104887;1264;59547;-48
2023/01/28 03:47:23;;;;;;;25.20;13.30;;;;;;;-3.53;100.00;101021.30;104993;1266;72045;-45
2023/01/28 03:49:54;;;;;;;33.40;16.90;;;;;;;-3.54;100.00;101014.95;105707;1264;67492;-47
2023/01/28 03:52:24;;;;;;;28.60;13.50;;;;;;;-3.54;100.00;101011.25;104826;1264;72898;-46
2023/01/28 03:54:53;;;;;;;28.60;14.90;;;;;;;-3.51;100.00;101012.77;104887;1269;61050;-43
2023/01/28 03:57:26;;;;;;;29.60;14.10;;;;;;;-3.45;100.00;101014.86;105214;1263;59720;-47
2023/01/28 03:59:54;;;;;;;36.10;15.90;;;;;;;-3.38;100.00;101016.80;104938;1264;72477;-46
2023/01/28 04:02:24;;;;;;;28.30;14.40;;;;;;;-3.31;100.00;101013.32;105062;1264;67949;-45
2023/01/28 04:04:52;;;;;;;30.70;15.10;;;;;;;-3.25;100.00;101016.32;104970;1270;73140;-49
2023/01/28 04:07:21;;;;;;;30.40;15.20;;;;;;;-3.21;100.00;101015.16;104744;1271;59739;-47
2023/01/28 04:10:09;;;;;;;38.00;17.00;;;;;;;-3.19;100.00;101028.04;104910;1264;60557;-44
2023/01/28 04:12:53;;;;;;;25.90;14.10;;;;;;;-3.21;100.00;101027.80;104885;1268;72236;-45
2023/01/28 04:15:22;;;;;;;41.40;17.00;;;;;;;-3.19;100.00;101023.65;104688;1269;66979;-46
2023/01/28 04:17:51;;;;;;;27.50;14.40;;;;;;;-3.17;100.00;101024.60;104726;1265;70328;-46
2023/01/28 04:20:24;;;;;;;21.60;11.50;;;;;;;-3.18;100.00;101025.80;104717;1263;60519;-44
2023/01/28 04:22:52;;;;;;;21.40;12.70;;;;;;;-3.19;100.00;101024.36;104612;1270;60100;-49
2023/01/28 04:25:22;;;;;;;26.80;12.50;;;;;;;-3.20;100.00;101018.87;105027;1269;71411;-46
2023/01/28 04:27:50;;;;;;;23.40;12.30;;;;;;;-3.19;100.00;101018.74;105243;1264;68186;-47
2023/01/28 04:30:21;;;;;;;23.00;11.90;;;;;;;-3.18;100.00;101019.64;105057;1267;74166;-49
2023/01/28 04:33:11;;;;;;;23.20;12.70;;;;;;;-3.18;100.00;101033.70;104751;1264;62244;-44
2023/01/28 04:35:58;;;;;;;18.30;10.10;;;;;;;-3.19;100.00;101034.03;104878;1263;59650;-44
2023/01/28 04:38:38;;;;;;;38.40;16.60;;;;;;;-3.19;100.00;101030.48;104757;1269;71883;-44
2023/01/28 04:41:39;;;;;;;24.00;12.00;;;;;;;-53.09;59.60;60629.38;103496;1267;1002938;-48
2023/01/28 04:44:19;;;;;;;22.90;11.90;;;;;;;-128.00;-1.00;-1.00;102515;1264;1014012;-48
2023/01/28 04:49:08;;;;;;;28.10;15.00;;;;;;;-3.01;100.00;101084.18;102343;1295;602467;-46
2023/01/28 04:51:42;;;;;;;44.50;20.00;;;;;;;-128.00;-1.00;-1.00;102257;1268;1013028;-45
2023/01/28 04:54:26;;;;;;;51.30;22.90;;;;;;;-128.00;-1.00;-1.00;102023;1270;1011386;-44
2023/01/28 04:56:57;;;;;;;38.20;17.90;;;;;;;-128.00;-1.00;-1.00;101888;1272;1012272;-46
2023/01/28 04:59:25;;;;;;;31.50;13.10;;;;;;;-128.00;-1.00;-1.00;101947;1270;1015738;-46
2023/01/28 05:01:53;;;;;;;43.60;15.80;;;;;;;-128.00;-1.00;-1.00;101929;1272;1002305;-48
2023/01/28 05:04:21;;;;;;;22.30;11.30;;;;;;;-128.00;-1.00;-1.00;102497;1268;1010855;-45
2023/01/28 05:06:50;;;;;;;33.40;13.50;;;;;;;-128.00;-1.00;-1.00;102797;1267;1011799;-46
2023/01/28 05:09:22;;;;;;;28.10;12.40;;;;;;;-128.00;-1.00;-1.00;102511;1266;1013479;-46
2023/01/28 05:11:52;;;;;;;26.40;11.40;;;;;;;-128.00;-1.00;-1.00;102134;1266;1012818;-48
2023/01/28 05:14:20;;;;;;;31.00;13.50;;;;;;;-128.00;-1.00;-1.00;102146;1268;1004791;-47
2023/01/28 05:16:55;;;;;;;36.20;12.60;;;;;;;-128.00;-1.00;-1.00;102181;1269;1010015;-45
2023/01/28 05:19:23;;;;;;;26.60;11.90;;;;;;;-128.00;-1.00;-1.00;102515;1267;1002798;-46
2023/01/28 05:21:51;;;;;;;33.00;13.70;;;;;;;-128.00;-1.00;-1.00;102225;1264;1002589;-46
2023/01/28 05:24:31;;;;;;;28.20;12.20;;;;;;;-128.00;-1.00;-1.00;102155;1263;1012886;-46
2023/01/28 05:26:59;;;;;;;29.60;12.70;;;;;;;-128.00;-1.00;-1.00;102327;1264;1013714;-47
2023/01/28 05:29:27;;;;;;;32.00;14.00;;;;;;;-128.00;-1.00;-1.00;102505;1269;1004159;-47
2023/01/28 05:31:55;;;;;;;22.70;11.20;;;;;;;-128.00;-1.00;-1.00;102687;1266;1003677;-45
2023/01/28 05:34:24;;;;;;;25.00;11.70;;;;;;;-128.00;-1.00;-1.00;102670;1267;1002850;-46
2023/01/28 05:36:54;;;;;;;24.40;10.40;;;;;;;-128.00;-1.00;-1.00;102962;1269;1013402;-46
2023/01/28 05:39:30;;;;;;;28.40;12.30;;;;;;;-128.00;-1.00;-1.00;102060;1270;1012918;-46
2023/01/28 05:41:59;;;;;;;23.90;10.80;;;;;;;-128.00;-1.00;-1.00;102144;1270;1011269;-47
2023/01/28 05:44:27;;;;;;;31.20;12.40;;;;;;;-128.00;-1.00;-1.00;101961;1269;1002235;-45
2023/01/28 05:47:13;;;;;;;25.50;11.60;;;;;;;-128.00;-1.00;-1.00;102351;1276;1012611;-44
2023/01/28 05:50:05;;;;;;;25.90;10.70;;;;;;;-128.00;-1.00;-1.00;102364;1267;1013121;-43
2023/01/28 05:52:36;;;;;;;24.60;12.60;;;;;;;-128.00;-1.00;-1.00;102580;1270;1013751;-44
2023/01/28 05:55:08;;;;;;;23.30;10.90;;;;;;;-128.00;-1.00;-1.00;103081;1270;1010123;-46
2023/01/28 05:57:37;;;;;;;26.80;12.30;;;;;;;-128.00;-1.00;-1.00;101890;1269;1011615;-45
2023/01/28 06:00:06;;;;;;;21.60;12.30;;;;;;;-128.00;-1.00;-1.00;105885;1264;1013081;-46
2023/01/28 06:02:42;;;;;;;28.00;12.30;;;;;;;-128.00;-1.00;-1.00;102747;1269;1012445;-45
2023/01/28 06:05:12;;;;;;;25.20;12.60;;;;;;;-128.00;-1.00;-1.00;103605;1264;1013315;-47
2023/01/28 06:07:44;;;;;;;23.40;11.40;;;;;;;-128.00;-1.00;-1.00;102372;1266;1011415;-48
2023/01/28 06:10:12;;;;;;;22.70;10.60;;;;;;;-128.00;-1.00;-1.00;102740;1260;1011635;-48
2023/01/28 06:12:41;;;;;;;22.90;10.60;;;;;;;-128.00;-1.00;-1.00;102782;1260;1012876;-45
2023/01/28 06:15:37;;;;;;;17.20;9.80;;;;;;;-128.00;-1.00;-1.00;103853;1264;1013260;-45
2023/01/28 06:18:25;;;;;;;18.00;9.00;;;;;;;-128.00;-1.00;-1.00;106044;1260;1012060;-45
2023/01/28 06:20:54;;;;;;;20.90;10.30;;;;;;;-128.00;-1.00;-1.00;103229;1262;1010384;-46
2023/01/28 06:23:22;;;;;;;18.60;9.60;;;;;;;-128.00;-1.00;-1.00;105995;1260;1002425;-48
2023/01/28 06:25:54;;;;;;;23.30;12.10;;;;;;;-128.00;-1.00;-1.00;106040;1260;1002730;-46
2023/01/28 06:28:23;;;;;;;25.00;12.90;;;;;;;-128.00;-1.00;-1.00;106025;1260;1012416;-48
2023/01/28 06:30:51;;;;;;;25.00;12.90;;;;;;;-128.00;-1.00;-1.00;106118;1260;1012426;-47
2023/01/28 06:33:19;;;;;;;25.10;13.20;;;;;;;-128.00;-1.00;-1.00;106036;1260;1002676;-46
2023/01/28 06:35:47;;;;;;;21.40;12.30;;;;;;;-128.00;-1.00;-1.00;104333;1260;1011014;-46
2023/01/28 06:38:16;;;;;;;21.70;12.20;;;;;;;-128.00;-1.00;-1.00;101708;1261;1016035;-45
2023/01/28 06:40:44;;;;;;;21.10;10.60;;;;;;;-128.00;-1.00;-1.00;106074;1260;1002927;-45
2023/01/28 06:43:12;;;;;;;23.60;12.00;;;;;;;-128.00;-1.00;-1.00;106087;1260;1012799;-46
2023/01/28 06:45:40;;;;;;;20.50;10.90;;;;;;;-128.00;-1.00;-1.00;106144;1260;1002319;-46
2023/01/28 06:48:08;;;;;;;19.70;11.50;;;;;;;-128.00;-1.00;-1.00;105840;1260;1002687;-47
2023/01/28 06:50:36;;;;;;;18.90;11.50;;;;;;;-128.00;-1.00;-1.00;106570;1251;1002268;-47
2023/01/28 06:53:04;;;;;;;19.50;11.60;;;;;;;-128.00;-1.00;-1.00;106574;1254;1012515;-46
2023/01/28 06:55:32;;;;;;;21.60;11.50;;;;;;;-128.00;-1.00;-1.00;104706;1255;1002185;-48
2023/01/28 06:58:00;;;;;;;22.70;12.30;;;;;;;-128.00;-1.00;-1.00;106398;1253;1010561;-46
2023/01/28 07:00:28;;;;;;;19.80;10.70;;;;;;;-128.00;-1.00;-1.00;106231;1253;1002754;-45
2023/01/28 07:02:56;;;;;;;21.60;11.80;;;;;;;-128.00;-1.00;-1.00;103039;1256;1002625;-45
2023/01/28 07:05:24;;;;;;;21.30;11.40;;;;;;;-128.00;-1.00;-1.00;104849;1254;1002237;-46
2023/01/28 07:07:53;;;;;;;23.20;10.60;;;;;;;-128.00;-1.00;-1.00;102933;1257;1012159;-45
2023/01/28 07:10:21;;;;;;;17.70;10.50;;;;;;;-128.00;-1.00;-1.00;103004;1257;1002876;-45
2023/01/28 07:12:49;;;;;;;19.80;10.30;;;;;;;-128.00;-1.00;-1.00;104979;1252;1010808;-48
2023/01/28 07:15:18;;;;;;;19.60;10.40;;;;;;;-128.00;-1.00;-1.00;103079;1254;1013133;-44
2023/01/28 07:17:46;;;;;;;17.60;9.60;;;;;;;-128.00;-1.00;-1.00;103093;1255;1004262;-43
2023/01/28 07:20:14;;;;;;;21.40;12.10;;;;;;;-128.00;-1.00;-1.00;103000;1257;1013259;-42
2023/01/28 07:22:43;;;;;;;21.50;11.80;;;;;;;-128.00;-1.00;-1.00;103726;1254;1010005;-45
2023/01/28 07:25:12;;;;;;;23.50;11.40;;;;;;;-128.00;-1.00;-1.00;102956;1253;1011338;-46
2023/01/28 07:27:51;;;;;;;19.40;12.30;;;;;;;-128.00;-1.00;-1.00;104368;1254;1011942;-47
2023/01/28 07:30:20;;;;;;;22.90;12.20;;;;;;;-128.00;-1.00;-1.00;102995;1254;1012051;-47
2023/01/28 07:32:52;;;;;;;26.60;13.70;;;;;;;-128.00;-1.00;-1.00;102810;1254;1015652;-46
2023/01/28 07:35:20;;;;;;;23.30;13.50;;;;;;;-128.00;-1.00;-1.00;103857;1256;1011135;-46
2023/01/28 07:37:53;;;;;;;21.90;12.70;;;;;;;-128.00;-1.00;-1.00;103093;1254;1002743;-46
2023/01/28 07:40:21;;;;;;;20.90;12.20;;;;;;;-128.00;-1.00;-1.00;103147;1257;1012886;-48
2023/01/28 07:42:49;;;;;;;21.70;11.30;;;;;;;-128.00;-1.00;-1.00;102897;1256;1002841;-46
2023/01/28 07:45:22;;;;;;;22.40;12.20;;;;;;;-128.00;-1.00;-1.00;104541;1254;1012932;-46
2023/01/28 07:48:01;;;;;;;24.00;13.70;;;;;;;-128.00;-1.00;-1.00;102859;1257;1010189;-46
2023/01/28 07:50:30;;;;;;;27.30;13.50;;;;;;;-128.00;-1.00;-1.00;103303;1257;1011850;-45
2023/01/28 07:52:58;;;;;;;27.70;15.50;;;;;;;-128.00;-1.00;-1.00;102987;1255;1013712;-45
2023/01/28 07:55:26;;;;;;;25.60;15.30;;;;;;;-128.00;-1.00;-1.00;103111;1255;1002858;-45
2023/01/28 07:57:58;;;;;;;28.10;15.50;;;;;;;-128.00;-1.00;-1.00;103035;1257;1013127;-45
2023/01/28 08:00:28;;;;;;;24.50;14.20;;;;;;;-128.00;-1.00;-1.00;102307;1257;1010617;-48
2023/01/28 08:03:00;;;;;;;26.90;15.00;;;;;;;-128.00;-1.00;-1.00;103743;1253;1010989;-45
2023/01/28 08:05:53;;;;;;;26.30;15.00;;;;;;;-128.00;-1.00;-1.00;102784;1254;1013477;-46
2023/01/28 08:08:22;;;;;;;25.50;12.60;;;;;;;-128.00;-1.00;-1.00;102806;1255;1012800;-46
2023/01/28 08:10:50;;;;;;;22.50;13.10;;;;;;;-128.00;-1.00;-1.00;103080;1255;1012964;-48
2023/01/28 08:13:18;;;;;;;24.90;12.80;;;;;;;-128.00;-1.00;-1.00;104111;1256;1009997;-45
2023/01/28 08:15:46;;;;;;;26.00;13.60;;;;;;;-128.00;-1.00;-1.00;103006;1254;1002810;-46
2023/01/28 08:18:15;;;;;;;28.40;16.00;;;;;;;-128.00;-1.00;-1.00;103101;1253;1002935;-46
2023/01/28 08:20:45;;;;;;;30.30;16.30;;;;;;;-128.00;-1.00;-1.00;103183;1257;1013329;-47
2023/01/28 08:23:19;;;;;;;38.20;17.50;;;;;;;-128.00;-1.00;-1.00;103155;1256;1013592;-47
2023/01/28 08:25:50;;;;;;;46.40;24.10;;;;;;;-128.00;-1.00;-1.00;103103;1256;1010598;-45
2023/01/28 08:28:18;;;;;;;49.50;32.20;;;;;;;-128.00;-1.00;-1.00;102823;1254;1003130;-46
2023/01/28 08:30:47;;;;;;;39.10;20.70;;;;;;;-128.00;-1.00;-1.00;102923;1253;1013074;-43
2023/01/28 08:33:15;;;;;;;35.70;18.70;;;;;;;-128.00;-1.00;-1.00;103466;1256;1012826;-47
2023/01/28 08:35:44;;;;;;;28.80;15.80;;;;;;;-128.00;-1.00;-1.00;102980;1256;1012680;-45
2023/01/28 08:38:12;;;;;;;38.30;21.30;;;;;;;-128.00;-1.00;-1.00;102855;1257;1010420;-49
2023/01/28 08:40:40;;;;;;;34.80;16.40;;;;;;;-128.00;-1.00;-1.00;103075;1256;1011331;-46
2023/01/28 08:43:08;;;;;;;40.50;21.20;;;;;;;-128.00;-1.00;-1.00;103438;1254;1003222;-46
2023/01/28 08:45:36;;;;;;;40.60;22.70;;;;;;;-128.00;-1.00;-1.00;102802;1254;1013263;-45
2023/01/28 08:48:05;;;;;;;45.90;23.40;;;;;;;-128.00;-1.00;-1.00;103734;1257;1002751;-49
2023/01/28 08:50:35;;;;;;;28.00;16.70;;;;;;;-128.00;-1.00;-1.00;103050;1255;1010996;-47
2023/01/28 08:53:09;;;;;;;29.50;17.00;;;;;;;-128.00;-1.00;-1.00;103151;1253;1010963;-45
2023/01/28 08:55:37;;;;;;;27.30;15.90;;;;;;;-128.00;-1.00;-1.00;103369;1254;1013393;-46
2023/01/28 08:58:09;;;;;;;31.30;17.60;;;;;;;-128.00;-1.00;-1.00;104114;1257;1013698;-48
2023/01/28 09:00:37;;;;;;;24.70;15.50;;;;;;;-128.00;-1.00;-1.00;105231;1254;1013696;-45
2023/01/28 09:03:05;;;;;;;29.50;15.10;;;;;;;-128.00;-1.00;-1.00;102935;1257;1010770;-49
2023/01/28 09:05:36;;;;;;;30.90;13.50;;;;;;;-128.00;-1.00;-1.00;103235;1253;1010673;-46
2023/01/28 09:08:06;;;;;;;31.10;15.10;;;;;;;-128.00;-1.00;-1.00;104873;1254;1002687;-48
2023/01/28 09:10:36;;;;;;;27.10;14.40;;;;;;;-128.00;-1.00;-1.00;103125;1255;1012772;-48
2023/01/28 09:13:05;;;;;;;28.10;14.50;;;;;;;-128.00;-1.00;-1.00;102950;1254;1012993;-47
2023/01/28 09:15:33;;;;;;;27.80;15.50;;;;;;;-128.00;-1.00;-1.00;102465;1253;1010392;-44
2023/01/28 09:18:01;;;;;;;26.50;15.00;;;;;;;-128.00;-1.00;-1.00;102429;1253;1002993;-45
2023/01/28 09:22:50;;;;;;;37.50;19.40;;;;;;;-3.43;100.00;101260.60;102141;1291;600435;-48
2023/01/28 09:25:18;;;;;;;34.80;17.70;;;;;;;-3.49;100.00;101243.40;104653;1260;59391;-43
2023/01/28 09:27:46;;;;;;;34.50;18.20;;;;;;;-3.47;100.00;101187.66;104859;1260;61009;-43
2023/01/28 09:30:14;;;;;;;41.10;19.90;;;;;;;-3.41;100.00;101163.27;108710;1257;74073;-47
2023/01/28 09:32:44;;;;;;;35.50;16.90;;;;;;;-3.36;100.00;101142.89;108751;1257;67526;-46
2023/01/28 09:35:14;;;;;;;44.40;18.90;;;;;;;-3.33;100.00;101121.05;108717;1257;72907;-48
2023/01/28 09:37:41;;;;;;;35.10;17.40;;;;;;;-3.37;100.00;101103.20;108986;1255;81919;-47
2023/01/28 09:40:31;;;;;;;40.80;20.00;;;;;;;-3.41;100.00;101082.55;106536;1259;59434;-46
2023/01/28 09:43:02;;;;;;;37.20;16.90;;;;;;;-3.40;100.00;101083.27;108774;1256;71248;-45
2023/01/28 09:45:35;;;;;;;29.40;15.80;;;;;;;-3.37;100.00;101063.69;109057;1256;66941;-46
2023/01/28 09:48:04;;;;;;;28.70;15.50;;;;;;;-3.36;100.00;101059.68;108723;1261;72061;-45
2023/01/28 09:50:34;;;;;;;39.30;18.00;;;;;;;-3.41;100.00;101045.86;108740;1256;59548;-45
2023/01/28 09:53:11;;;;;;;32.50;16.30;;;;;;;-3.48;100.00;101041.45;108890;1256;60628;-46
2023/01/28 09:55:43;;;;;;;36.70;18.10;;;;;;;-3.53;100.00;101036.75;108706;1256;72808;-47
2023/01/28 09:58:13;;;;;;;31.50;17.30;;;;;;;-3.58;100.00;101034.14;108337;1261;67798;-43
2023/01/28 10:01:09;;;;;;;32.60;17.10;;;;;;;-3.61;100.00;101023.70;105122;1262;73420;-45
2023/01/28 10:04:05;;;;;;;35.20;18.20;;;;;;;-3.64;100.00;101023.77;105079;1257;60434;-43
2023/01/28 10:06:37;;;;;;;;;;;;;;;-3.65;100.00;101024.63;105492;1262;59758;-46
2023/01/28 10:09:20;;;;;;;39.30;16.40;;;;;;;-3.65;100.00;101011.13;105230;1259;72277;-48
2023/01/28 10:12:01;;;;;;;38.90;17.00;;;;;;;-3.68;100.00;101012.95;105133;1256;66777;-45
2023/01/28 10:15:26;;;;;;;30.70;16.80;;;;;;;-3.70;100.00;101008.32;105373;1260;72612;-45
2023/01/28 10:17:58;;;;;;;34.60;16.30;;;;;;;-3.68;100.00;101021.76;104705;1267;61384;-46
2023/01/28 10:20:47;;;;;;;39.30;16.40;;;;;;;-3.67;100.00;101006.34;104968;1262;59698;-45
2023/01/28 10:23:29;;;;;;;41.20;20.50;;;;;;;-3.67;100.00;100990.38;105085;1259;72258;-48
2023/01/28 10:25:58;;;;;;;40.10;19.10;;;;;;;-3.66;100.00;100993.04;105281;1259;67199;-45
2023/01/28 10:28:27;;;;;;;43.10;20.20;;;;;;;-3.67;100.00;100981.45;105933;1257;71889;-45
2023/01/28 10:30:55;;;;;;;48.80;23.30;;;;;;;-3.72;100.00;100982.84;105162;1262;59597;-46
2023/01/28 10:33:26;;;;;;;50.20;22.40;;;;;;;-3.81;100.00;100975.77;105222;1257;59565;-46
2023/01/28 10:35:57;;;;;;;33.60;17.50;;;;;;;-3.88;100.00;100971.88;107278;1257;71961;-44
2023/01/28 10:38:25;;;;;;;34.60;17.30;;;;;;;-3.93;100.00;100961.91;105357;1261;67135;-45
2023/01/28 10:40:57;;;;;;;32.20;17.80;;;;;;;-3.96;100.00;100962.54;105295;1261;73026;-43
2023/01/28 10:43:25;;;;;;;29.70;15.20;;;;;;;-3.97;100.00;100954.23;105573;1261;60727;-45
2023/01/28 10:46:00;;;;;;;34.20;16.00;;;;;;;-3.92;100.00;100946.67;106160;1260;60498;-45
2023/01/28 10:48:31;;;;;;;33.40;17.50;;;;;;;-3.84;100.00;100940.95;105813;1261;72084;-45
2023/01/28 10:51:01;;;;;;;35.30;17.40;;;;;;;-3.75;100.00;100935.04;105661;1260;67892;-46
2023/01/28 10:53:37;;;;;;;36.60;17.70;;;;;;;-3.68;100.00;100930.52;105210;1261;72399;-46
2023/01/28 10:56:16;;;;;;;31.00;16.70;;;;;;;-3.64;100.00;100932.20;105312;1259;60392;-46
2023/01/28 10:59:05;;;;;;;36.30;19.00;;;;;;;-3.63;100.00;100932.92;105267;1256;59603;-48
2023/01/28 11:01:41;;;;;;;42.60;21.20;;;;;;;-3.72;100.00;100925.67;105244;1262;71606;-45
2023/01/28 11:04:25;;;;;;;35.70;20.50;;;;;;;-3.70;100.00;100919.77;105055;1264;69225;-44
2023/01/28 11:07:03;;;;;;;36.10;20.00;;;;;;;-3.67;100.00;100910.37;107053;1260;72667;-45
2023/01/28 11:09:33;;;;;;;33.80;17.60;;;;;;;-3.63;100.00;100910.48;105580;1262;61117;-45
2023/01/28 11:12:18;;;;;;;34.70;18.60;;;;;;;-3.60;100.00;100906.36;105342;1261;61121;-45
2023/01/28 11:15:05;;;;;;;33.60;18.10;;;;;;;-3.59;100.00;100911.49;105335;1256;72001;-43
2023/01/28 11:17:34;;;;;;;34.40;18.10;;;;;;;-3.54;100.00;100909.49;105266;1261;67042;-43
2023/01/28 11:20:11;;;;;;;27.80;15.60;;;;;;;-3.49;100.00;100901.39;105516;1256;71422;-43
2023/01/28 11:22:41;;;;;;;42.60;21.50;;;;;;;-3.44;100.00;100904.49;105565;1261;59194;-43
2023/01/28 11:25:30;;;;;;;49.30;24.10;;;;;;;-3.44;100.00;100897.14;105286;1260;59738;-46
2023/01/28 11:27:59;;;;;;;37.50;21.60;;;;;;;-3.40;100.00;100905.64;105695;1261;74252;-43
2023/01/28 11:30:36;;;;;;;35.00;16.80;;;;;;;-3.36;100.00;100895.92;105290;1259;67030;-45
2023/01/28 11:33:26;;;;;;;29.90;16.30;;;;;;;-3.34;100.00;100899.33;105629;1259;70319;-45
2023/01/28 11:35:55;;;;;;;36.40;17.10;;;;;;;-3.34;100.00;100903.73;105257;1259;60963;-45
2023/01/28 11:38:24;;;;;;;35.30;16.20;;;;;;;-3.36;100.00;100894.70;105204;1259;59597;-45
2023/01/28 11:40:53;;;;;;;29.50;15.00;;;;;;;-3.35;100.00;100892.61;105183;1260;71870;-47
2023/01/28 11:43:26;;;;;;;24.60;12.80;;;;;;;-3.33;100.00;100894.97;106799;1260;66481;-46
2023/01/28 11:46:18;;;;;;;24.70;12.80;;;;;;;-3.31;100.00;100892.00;106201;1257;72913;-44
2023/01/28 11:49:02;;;;;;;23.20;13.00;;;;;;;-3.29;100.00;100904.02;105429;1260;60472;-43
2023/01/28 11:51:47;;;;;;;23.70;12.30;;;;;;;-3.23;100.00;100905.40;108911;1256;60453;-48
2023/01/28 11:54:24;;;;;;;26.20;13.60;;;;;;;-3.13;100.00;100905.29;108831;1256;72081;-46
2023/01/28 11:56:55;;;;;;;30.30;15.50;;;;;;;-3.05;100.00;100902.33;108895;1256;66037;-47
2023/01/28 11:59:59;;;;;;;30.60;15.20;;;;;;;-2.99;100.00;100897.74;108891;1256;73452;-46
2023/01/28 12:02:49;;;;;;;27.10;13.70;;;;;;;-2.95;100.00;100908.38;108864;1256;58375;-46
2023/01/28 12:05:45;;;;;;;23.10;12.20;;;;;;;-2.94;100.00;100904.70;108839;1259;59384;-48
2023/01/28 12:08:27;;;;;;;22.80;13.30;;;;;;;-2.95;100.00;100904.52;108918;1256;74034;-46
2023/01/28 12:11:07;;;;;;;27.40;14.80;;;;;;;-2.95;100.00;100893.27;108898;1256;67436;-46
2023/01/28 12:13:57;;;;;;;26.20;14.10;;;;;;;-2.95;100.00;100894.66;108963;1259;72032;-45
2023/01/28 12:16:50;;;;;;;28.00;15.00;;;;;;;-2.93;100.00;100894.19;105997;1260;60157;-45
2023/01/28 12:19:28;;;;;;;27.00;12.60;;;;;;;-2.89;100.00;100896.23;105123;1257;60937;-44
2023/01/28 12:22:04;;;;;;;19.20;11.30;;;;;;;-2.86;100.00;100894.73;108982;1256;72073;-46
2023/01/28 12:24:45;;;;;;;25.10;14.20;;;;;;;-2.79;100.00;100892.41;108963;1256;67003;-46
2023/01/28 12:27:45;;;;;;;27.00;14.00;;;;;;;-2.73;100.00;100890.45;108952;1256;70806;-46
2023/01/28 12:30:24;;;;;;;25.50;13.90;;;;;;;-2.67;100.00;100890.77;108821;1256;57735;-45
2023/01/28 12:33:21;;;;;;;24.90;14.10;;;;;;;-2.62;100.00;100881.55;108881;1257;59333;-47
2023/01/28 12:35:57;;;;;;;26.90;14.80;;;;;;;-2.57;100.00;100894.33;108781;1257;70848;-46
2023/01/28 12:38:40;;;;;;;31.40;16.30;;;;;;;-2.57;100.00;100884.69;108882;1256;67530;-45